M I D A S
Marine Information and Data Acquisition System
Tripno 2103 of the Zeeleeuw from 2011-05-19 07:49:11 to 2011-05-19 13:01:09
Back to CruiseResearch ActivitiesStationsMapUnderway DataData graphs

EquipmentUnitsComments
TimeDGPSUTC
LatitudeDGPSDM.mWGS84
LongitudeDGPSDM.mWGS84
SpeedMeteo Stationm/sRelative wind speed
DirectionMeteo StationdegRelative wind direction
TemperatureMeteo Stationdeg CelciusAir temperature
PressureMeteo StationPaAtmospheric pressure
HumidityMeteo Station%Relative humidity
Missing or incorrect values are displayed as -999
Metereological data collected by the RV Zeeleeuw from 2011-05-19 07:50:55 to 2011-05-19 13:13:59
Time Latitude Longitude Speed Direction Temperature Pressure Humidity
2011-05-19 07:52 51°13.633 2°55.999 -999 269 13.3 101770 39
2011-05-19 07:53 51°13.656 2°55.912 -999 268 13.3 101780 38
2011-05-19 07:54 51°13.681 2°55.834 -999 25 13.2 101770 39
2011-05-19 07:55 51°13.711 2°55.763 -999 24 13.2 101770 38
2011-05-19 07:56 51°13.767 2°55.686 -999 23 13.1 101780 38
2011-05-19 07:57 51°13.846 2°55.627 0.1 22 13.2 101780 39
2011-05-19 07:58 51°13.923 2°55.623 -999 23 13.4 101770 40
2011-05-19 07:58 51°13.96 2°55.641 -999 23 13.6 101780 39
2011-05-19 07:59 51°13.97 2°55.577 -999 356 13.4 101770 38
2011-05-19 08:00 51°14.047 2°55.497 -999 346 13.3 101770 38
2011-05-19 08:01 51°14.162 2°55.392 4.2 339 13.2 101770 39
2011-05-19 08:02 51°14.296 2°55.261 5.4 342 13.2 101770 39
2011-05-19 08:03 51°14.452 2°55.096 5.9 342 13.1 101770 40
2011-05-19 08:04 51°14.608 2°54.89 6 340 13 101770 40
2011-05-19 08:05 51°14.677 2°54.571 5 348 13 101770 39
2011-05-19 08:06 51°14.568 2°54.263 4.1 343 12.9 101780 40
2011-05-19 08:07 51°14.42 2°53.957 5.1 342 12.9 101790 36
2011-05-19 08:08 51°14.31 2°53.624 4.3 343 12.9 101790 40
2011-05-19 08:09 51°14.157 2°53.327 3.4 342 12.8 101790 38
2011-05-19 08:10 51°14.002 2°53.027 4.1 343 12.9 101790 39
2011-05-19 08:11 51°13.857 2°52.706 4 340 12.8 101790 39
2011-05-19 08:12 51°13.721 2°52.382 4.2 343 12.9 101790 38
2011-05-19 08:13 51°13.58 2°52.062 4.4 341 12.9 101790 38
2011-05-19 08:14 51°13.442 2°51.742 5.3 342 12.9 101790 38
2011-05-19 08:15 51°13.317 2°51.416 4.7 342 12.9 101790 38
2011-05-19 08:16 51°13.182 2°51.091 5 344 12.9 101790 38
2011-05-19 08:17 51°13.064 2°50.752 5 342 12.9 101790 39
2011-05-19 08:18 51°12.937 2°50.414 5 342 12.9 101790 38
2011-05-19 08:19 51°12.829 2°50.053 5.1 341 12.9 101790 39
2011-05-19 08:20 51°12.713 2°49.703 6 340 12.9 101790 40
2011-05-19 08:21 51°12.609 2°49.339 5.2 343 12.9 101790 40
2011-05-19 08:22 51°12.487 2°48.984 5.7 342 12.9 101790 38
2011-05-19 08:23 51°12.383 2°48.625 5.7 343 12.8 101790 37
2011-05-19 08:24 51°12.275 2°48.272 6.3 346 12.8 101790 40
2011-05-19 08:25 51°12.182 2°47.907 5.3 346 12.8 101790 40
2011-05-19 08:26 51°12.085 2°47.552 6.5 344 12.8 101790 39
2011-05-19 08:27 51°12.016 2°47.171 5.7 343 12.8 101790 40
2011-05-19 08:28 51°11.945 2°46.788 5.4 345 12.8 101790 38
2011-05-19 08:29 51°11.892 2°46.399 6.2 346 12.7 101790 39
2011-05-19 08:30 51°11.828 2°46.008 5.7 342 12.7 101790 39
2011-05-19 08:31 51°11.788 2°45.63 5.7 348 12.7 101790 38
2011-05-19 08:32 51°11.732 2°45.245 5.3 342 12.7 101800 39
2011-05-19 08:33 51°11.701 2°44.875 4.7 343 12.8 101800 39
2011-05-19 08:34 51°11.658 2°44.511 5.6 344 12.8 101800 38
2011-05-19 08:35 51°11.629 2°44.139 5.2 345 12.8 101800 38
2011-05-19 08:36 51°11.599 2°43.776 5.7 344 12.8 101800 39
2011-05-19 08:37 51°11.556 2°43.424 5.1 343 12.9 101800 40
2011-05-19 08:38 51°11.525 2°43.062 6.2 345 12.8 101800 38
2011-05-19 08:39 51°11.483 2°42.704 5.2 342 12.8 101800 38
2011-05-19 08:40 51°11.435 2°42.344 5.5 345 12.8 101800 40
2011-05-19 08:41 51°11.345 2°41.998 4.6 342 12.8 101800 39
2011-05-19 08:42 51°11.243 2°41.663 4.2 342 12.8 101800 39
2011-05-19 08:43 51°11.121 2°41.35 5.2 342 12.8 101800 38
2011-05-19 08:44 51°11.01 2°41.01 4.6 341 12.8 101800 40
2011-05-19 08:45 51°10.89 2°40.694 5 338 12.9 101800 39
2011-05-19 08:46 51°10.787 2°40.345 4.3 339 12.9 101800 39
2011-05-19 08:47 51°10.685 2°40.011 4.7 337 12.9 101800 39
2011-05-19 08:48 51°10.577 2°39.657 4 337 12.9 101800 39
2011-05-19 08:49 51°10.474 2°39.306 4 337 12.9 101800 40
2011-05-19 08:50 51°10.367 2°38.958 4 336 12.9 101800 39
2011-05-19 08:51 51°10.26 2°38.611 4.8 337 12.9 101800 40
2011-05-19 08:52 51°10.15 2°38.265 5.1 336 12.9 101800 39
2011-05-19 08:53 51°10.046 2°37.905 4.1 339 12.9 101810 38
2011-05-19 08:54 51°9.934 2°37.558 4.5 338 12.9 101810 40
2011-05-19 08:55 51°9.835 2°37.2 4.9 339 12.9 101810 38
2011-05-19 08:56 51°9.723 2°36.862 4.2 339 12.9 101810 40
2011-05-19 08:57 51°9.649 2°36.611 0.3 356 12.9 101820 39
2011-05-19 08:58 51°9.594 2°36.48 -999 25 12.9 101820 39
2011-05-19 08:59 51°9.542 2°36.422 -999 24 13 101820 39
2011-05-19 09:00 51°9.53 2°36.38 0.1 24 13 101820 40
2011-05-19 09:01 51°9.522 2°36.34 1.5 23 13 101820 40
2011-05-19 09:02 51°9.512 2°36.301 -999 24 13 101820 39
2011-05-19 09:03 51°9.501 2°36.263 -999 24 12.9 101820 37
2011-05-19 09:04 51°9.489 2°36.223 -999 24 13 101820 39
2011-05-19 09:05 51°9.477 2°36.184 -999 24 13 101820 39
2011-05-19 09:06 51°9.462 2°36.147 -999 24 13 101820 39
2011-05-19 09:07 51°9.448 2°36.108 -999 24 13 101820 39
2011-05-19 09:08 51°9.433 2°36.07 -999 24 13 101830 39
2011-05-19 09:09 51°9.418 2°36.031 -999 24 13.1 101830 39
2011-05-19 09:10 51°9.402 2°35.993 -999 24 13 101820 39
2011-05-19 09:11 51°9.386 2°35.952 -999 24 13 101830 38
2011-05-19 09:12 51°9.37 2°35.912 -999 24 13.1 101830 39
2011-05-19 09:13 51°9.353 2°35.873 -999 24 13.1 101830 39
2011-05-19 09:14 51°9.337 2°35.834 -999 24 13.1 101830 39
2011-05-19 09:15 51°9.321 2°35.795 -999 24 13.2 101820 39
2011-05-19 09:16 51°9.305 2°35.753 -999 24 13.1 101830 39
2011-05-19 09:17 51°9.288 2°35.717 -999 24 13.2 101830 39
2011-05-19 09:18 51°9.272 2°35.679 -999 24 13.2 101830 39
2011-05-19 09:19 51°9.256 2°35.64 -999 24 13.2 101830 38
2011-05-19 09:20 51°9.239 2°35.603 -999 24 13.2 101830 39
2011-05-19 09:21 51°9.224 2°35.564 -999 24 13.2 101830 39
2011-05-19 09:22 51°9.208 2°35.525 -999 270 13.2 101820 39
2011-05-19 09:23 51°9.192 2°35.485 -999 270 13.3 101820 39
2011-05-19 09:24 51°9.177 2°35.445 -999 268 13.2 101830 39
2011-05-19 09:25 51°9.162 2°35.405 -999 270 13.3 101830 39
2011-05-19 09:26 51°9.147 2°35.365 -999 24 13.3 101830 39
2011-05-19 09:27 51°9.131 2°35.325 -999 270 13.3 101830 38
2011-05-19 09:28 51°9.116 2°35.285 -999 269 13.3 101830 39
2011-05-19 09:29 51°9.101 2°35.245 -999 269 13.3 101830 39
2011-05-19 09:30 51°9.075 2°35.237 0.2 25 13.4 101830 40
2011-05-19 09:31 51°9.097 2°35.286 -999 332 13.3 101820 39
2011-05-19 09:32 51°9.192 2°35.362 5.9 329 13.3 101830 40
2011-05-19 09:33 51°9.256 2°35.472 5 328 13.2 101830 39
2011-05-19 09:34 51°9.276 2°35.564 4.2 320 13.2 101830 39
2011-05-19 09:35 51°9.283 2°35.635 4 322 13.3 101820 37
2011-05-19 09:36 51°9.296 2°35.697 3.7 320 13.3 101820 38
2011-05-19 09:37 51°9.298 2°35.766 3.6 317 13.3 101820 39
2011-05-19 09:38 51°9.266 2°35.839 0.5 27 13.4 101830 38
2011-05-19 09:39 51°9.199 2°35.886 -999 24 13.5 101830 39
2011-05-19 09:40 51°9.116 2°35.882 -999 252 13.5 101830 39
2011-05-19 09:41 51°9.036 2°35.828 -999 270 13.7 101830 40
2011-05-19 09:42 51°8.974 2°35.742 -999 18 13.9 101830 40
2011-05-19 09:43 51°8.928 2°35.636 -999 17 13.9 101830 38
2011-05-19 09:44 51°8.889 2°35.515 -999 24 13.9 101830 39
2011-05-19 09:45 51°8.859 2°35.393 -999 17 13.8 101840 39
2011-05-19 09:46 51°8.842 2°35.269 -999 8 13.6 101840 39
2011-05-19 09:47 51°8.828 2°35.149 -999 8 13.6 101840 39
2011-05-19 09:48 51°8.812 2°35.028 -999 8 13.6 101840 39
2011-05-19 09:49 51°8.793 2°34.904 -999 13 13.6 101840 39
2011-05-19 09:50 51°8.774 2°34.781 -999 10 13.6 101840 39
2011-05-19 09:51 51°8.751 2°34.656 -999 13 13.6 101840 38
2011-05-19 09:52 51°8.728 2°34.536 -999 14 13.5 101840 39
2011-05-19 09:53 51°8.705 2°34.418 -999 15 13.6 101840 39
2011-05-19 09:54 51°8.681 2°34.297 -999 12 13.5 101840 39
2011-05-19 09:55 51°8.658 2°34.176 -999 11 13.5 101840 39
2011-05-19 09:56 51°8.639 2°34.062 -999 12 13.5 101840 39
2011-05-19 09:57 51°8.625 2°33.942 -999 11 13.5 101840 39
2011-05-19 09:58 51°8.612 2°33.828 -999 19 13.4 101840 39
2011-05-19 09:59 51°8.587 2°33.717 -999 24 13.5 101840 38
2011-05-19 10:00 51°8.556 2°33.608 -999 24 13.6 101840 39
2011-05-19 10:01 51°8.528 2°33.498 -999 12 13.7 101840 39
2011-05-19 10:02 51°8.505 2°33.385 -999 17 13.7 101840 39
2011-05-19 10:03 51°8.486 2°33.275 -999 10 13.6 101840 39
2011-05-19 10:04 51°8.481 2°33.165 -999 7 13.5 101840 39
2011-05-19 10:05 51°8.488 2°33.07 -999 -999 13.5 101850 38
2011-05-19 10:06 51°8.502 2°32.974 -999 -999 13.4 101840 39
2011-05-19 10:07 51°8.521 2°32.877 -999 356 13.4 101840 37
2011-05-19 10:08 51°8.543 2°32.785 -999 357 13.4 101840 39
2011-05-19 10:09 51°8.565 2°32.701 -999 354 13.3 101840 39
2011-05-19 10:10 51°8.579 2°32.645 -999 352 13.2 101840 39
2011-05-19 10:11 51°8.586 2°32.596 -999 -999 13.2 101840 39
2011-05-19 10:12 51°8.587 2°32.548 -999 357 13.2 101850 39
2011-05-19 10:13 51°8.607 2°32.499 -999 333 13.2 101840 39
2011-05-19 10:14 51°8.663 2°32.535 -999 327 13.3 101840 39
2011-05-19 10:15 51°8.78 2°32.685 7.5 328 13.4 101840 38
2011-05-19 10:16 51°8.913 2°32.908 8.5 328 13.5 101830 39
2011-05-19 10:17 51°9.032 2°33.153 8 328 13.5 101830 38
2011-05-19 10:18 51°9.166 2°33.369 7.5 328 13.5 101830 39
2011-05-19 10:19 51°9.295 2°33.61 7.6 329 13.6 101830 38
2011-05-19 10:20 51°9.431 2°33.833 8.2 330 13.7 101830 39
2011-05-19 10:21 51°9.562 2°34.078 8.8 331 13.7 101830 39
2011-05-19 10:22 51°9.7 2°34.309 3.9 330 13.6 101840 39
2011-05-19 10:23 51°9.827 2°34.555 7.5 329 13.7 101830 37
2011-05-19 10:24 51°9.959 2°34.785 7.5 330 13.6 101840 38
2011-05-19 10:25 51°10.087 2°35.035 3.9 330 13.7 101840 37
2011-05-19 10:26 51°10.212 2°35.282 7.9 329 13.7 101840 37
2011-05-19 10:27 51°10.333 2°35.527 7.5 331 13.7 101840 39
2011-05-19 10:28 51°10.457 2°35.772 8.4 331 13.8 101840 38
2011-05-19 10:29 51°10.576 2°36.023 8.3 330 13.7 101840 39
2011-05-19 10:30 51°10.7 2°36.267 7.5 330 13.6 101840 38
2011-05-19 10:31 51°10.817 2°36.526 7.4 330 13.7 101840 37
2011-05-19 10:32 51°10.924 2°36.791 7.3 331 13.7 101840 38
2011-05-19 10:33 51°11.04 2°37.046 3.9 330 13.6 101840 39
2011-05-19 10:34 51°11.145 2°37.308 7.4 331 13.6 101840 38
2011-05-19 10:35 51°11.262 2°37.569 7.7 329 13.6 101840 39
2011-05-19 10:36 51°11.368 2°37.832 7.7 329 13.7 101840 39
2011-05-19 10:37 51°11.489 2°38.089 4 329 13.6 101840 38
2011-05-19 10:38 51°11.599 2°38.352 7.2 328 13.6 101840 38
2011-05-19 10:39 51°11.704 2°38.613 8.1 330 13.7 101840 36
2011-05-19 10:40 51°11.814 2°38.877 7.6 331 13.7 101840 38
2011-05-19 10:41 51°11.921 2°39.151 8.1 329 13.7 101840 38
2011-05-19 10:42 51°12.026 2°39.412 8.2 330 13.7 101840 38
2011-05-19 10:43 51°12.133 2°39.682 7.7 329 13.7 101840 37
2011-05-19 10:44 51°12.238 2°39.942 3.8 329 13.8 101840 38
2011-05-19 10:45 51°12.347 2°40.21 8.2 328 13.8 101840 37
2011-05-19 10:46 51°12.448 2°40.483 9.6 330 13.8 101840 37
2011-05-19 10:47 51°12.558 2°40.737 7.6 329 13.8 101840 35
2011-05-19 10:48 51°12.658 2°41.009 3.9 328 13.7 101840 37
2011-05-19 10:49 51°12.771 2°41.274 8 329 13.7 101840 37
2011-05-19 10:50 51°12.869 2°41.542 7 330 13.8 101840 38
2011-05-19 10:51 51°12.98 2°41.803 3.9 329 13.8 101840 38
2011-05-19 10:52 51°13.082 2°42.081 7.9 330 13.8 101840 38
2011-05-19 10:53 51°13.194 2°42.345 8.9 330 13.7 101840 38
2011-05-19 10:54 51°13.295 2°42.619 7.6 328 13.7 101840 38
2011-05-19 10:55 51°13.41 2°42.877 8.5 329 13.7 101840 37
2011-05-19 10:56 51°13.506 2°43.151 8.5 327 13.7 101840 37
2011-05-19 10:57 51°13.585 2°43.453 4 327 13.7 101840 38
2011-05-19 10:58 51°13.67 2°43.745 9.3 327 13.8 101830 38
2011-05-19 10:59 51°13.717 2°44.061 7 326 13.8 101840 38
2011-05-19 11:00 51°13.78 2°44.377 8.5 325 13.9 101830 37
2011-05-19 11:01 51°13.827 2°44.696 4.1 322 13.9 101840 38
2011-05-19 11:02 51°13.888 2°45.016 4 325 13.9 101840 38
2011-05-19 11:03 51°13.936 2°45.337 4.2 325 13.9 101840 37
2011-05-19 11:04 51°13.996 2°45.65 8.5 326 13.9 101840 37
2011-05-19 11:05 51°14.049 2°45.966 7.9 324 13.9 101830 38
2011-05-19 11:06 51°14.067 2°46.287 7.5 321 13.9 101830 38
2011-05-19 11:07 51°14.029 2°46.618 6.8 320 14 101840 37
2011-05-19 11:08 51°13.938 2°46.927 4.4 320 13.9 101830 37
2011-05-19 11:09 51°13.839 2°47.11 0.8 21 14 101840 36
2011-05-19 11:10 51°13.793 2°47.174 -999 24 14 101840 37
2011-05-19 11:11 51°13.782 2°47.179 -999 25 14.1 101850 36
2011-05-19 11:12 51°13.773 2°47.172 -999 24 14.2 101850 37
2011-05-19 11:13 51°13.764 2°47.167 -999 24 14.2 101850 37
2011-05-19 11:14 51°13.755 2°47.163 -999 24 14.2 101850 37
2011-05-19 11:15 51°13.744 2°47.16 -999 24 14.3 101850 37
2011-05-19 11:16 51°13.733 2°47.158 -999 253 14.3 101850 37
2011-05-19 11:17 51°13.721 2°47.156 -999 255 14.4 101840 37
2011-05-19 11:18 51°13.707 2°47.154 -999 258 14.5 101840 37
2011-05-19 11:19 51°13.694 2°47.151 -999 258 14.4 101840 35
2011-05-19 11:20 51°13.682 2°47.148 -999 261 14.4 101850 37
2011-05-19 11:21 51°13.669 2°47.146 -999 254 14.4 101840 37
2011-05-19 11:22 51°13.658 2°47.144 -999 261 14.5 101840 37
2011-05-19 11:23 51°13.648 2°47.14 -999 263 14.5 101840 37
2011-05-19 11:24 51°13.637 2°47.136 -999 261 14.5 101850 37
2011-05-19 11:25 51°13.627 2°47.133 -999 253 14.5 101840 37
2011-05-19 11:26 51°13.618 2°47.129 -999 261 14.6 101840 37
2011-05-19 11:27 51°13.608 2°47.125 -999 258 14.6 101840 35
2011-05-19 11:28 51°13.6 2°47.122 -999 261 14.7 101850 37
2011-05-19 11:29 51°13.592 2°47.119 -999 257 14.7 101850 37
2011-05-19 11:30 51°13.584 2°47.116 -999 260 14.8 101850 37
2011-05-19 11:31 51°13.577 2°47.113 -999 254 14.9 101840 37
2011-05-19 11:32 51°13.569 2°47.11 -999 252 14.9 101840 37
2011-05-19 11:33 51°13.562 2°47.108 -999 251 14.9 101840 37
2011-05-19 11:34 51°13.554 2°47.109 0.1 254 15 101840 37
2011-05-19 11:35 51°13.505 2°47.18 -999 24 15.1 101840 36
2011-05-19 11:36 51°13.423 2°47.331 -999 24 15 101840 37
2011-05-19 11:37 51°13.282 2°47.37 -999 24 14.9 101840 37
2011-05-19 11:38 51°13.207 2°47.179 -999 360 14.8 101850 36
2011-05-19 11:39 51°13.286 2°47.056 5.7 345 14.4 101830 37
2011-05-19 11:40 51°13.37 2°47.091 5.4 335 14.2 101830 37
2011-05-19 11:41 51°13.455 2°47.215 6 326 14.1 101830 38
2011-05-19 11:42 51°13.477 2°47.332 5 26 14.1 101830 38
2011-05-19 11:43 51°13.485 2°47.433 4.6 26 14.1 101840 35
2011-05-19 11:44 51°13.498 2°47.532 4.9 317 14.1 101830 38
2011-05-19 11:45 51°13.514 2°47.621 5.4 317 14.1 101840 37
2011-05-19 11:46 51°13.527 2°47.713 5.4 21 14.1 101830 38
2011-05-19 11:47 51°13.54 2°47.804 4.5 316 14 101830 36
2011-05-19 11:48 51°13.56 2°47.895 4.5 319 14.1 101830 37
2011-05-19 11:49 51°13.585 2°47.986 4.8 322 14 101840 37
2011-05-19 11:50 51°13.611 2°48.078 4.1 322 14.1 101830 37
2011-05-19 11:51 51°13.634 2°48.175 5.2 25 14.2 101830 36
2011-05-19 11:52 51°13.655 2°48.27 4.4 317 14.1 101830 36
2011-05-19 11:53 51°13.685 2°48.36 4.5 327 14.1 101830 36
2011-05-19 11:54 51°13.721 2°48.442 4.3 328 14.2 101830 37
2011-05-19 11:55 51°13.761 2°48.523 5.6 325 14.2 101830 37
2011-05-19 11:56 51°13.8 2°48.607 5.2 324 14.1 101830 37
2011-05-19 11:57 51°13.841 2°48.688 4.4 323 14.1 101830 37
2011-05-19 11:58 51°13.881 2°48.766 5.9 329 14.1 101830 37
2011-05-19 11:59 51°13.925 2°48.841 5.5 329 14.2 101820 36
2011-05-19 12:00 51°13.971 2°48.912 5 332 14.1 101820 36
2011-05-19 12:01 51°14.017 2°48.984 4.9 330 14 101830 36
2011-05-19 12:02 51°14.062 2°49.056 5.3 329 14 101820 37
2011-05-19 12:03 51°14.108 2°49.134 5.3 328 14 101820 38
2011-05-19 12:04 51°14.152 2°49.212 4.7 325 14 101820 38
2011-05-19 12:05 51°14.196 2°49.291 5.8 330 14.1 101830 36
2011-05-19 12:06 51°14.237 2°49.375 5.9 329 14 101830 37
2011-05-19 12:07 51°14.276 2°49.461 5.2 329 14 101830 36
2011-05-19 12:08 51°14.316 2°49.548 4.7 330 14 101830 36
2011-05-19 12:09 51°14.354 2°49.628 4.8 324 14 101830 37
2011-05-19 12:10 51°14.392 2°49.708 4.3 329 14 101830 38
2011-05-19 12:11 51°14.431 2°49.784 5.5 325 14 101830 37
2011-05-19 12:12 51°14.472 2°49.855 5.1 326 14 101830 38
2011-05-19 12:13 51°14.507 2°49.929 4.2 324 14 101830 38
2011-05-19 12:14 51°14.537 2°50.006 4.2 319 14 101830 38
2011-05-19 12:15 51°14.563 2°50.079 5.5 322 14.1 101830 35
2011-05-19 12:16 51°14.589 2°50.155 5.6 319 14.1 101830 37
2011-05-19 12:17 51°14.61 2°50.237 4.6 26 14.1 101820 37
2011-05-19 12:18 51°14.618 2°50.329 4.6 244 14 101830 38
2011-05-19 12:19 51°14.606 2°50.469 6.7 26 14 101830 37
2011-05-19 12:20 51°14.616 2°50.622 5.4 319 14 101820 38
2011-05-19 12:21 51°14.641 2°50.722 3.9 321 14 101830 37
2011-05-19 12:22 51°14.666 2°50.793 5.6 323 14 101830 38
2011-05-19 12:23 51°14.688 2°50.853 5.2 328 14.1 101830 37
2011-05-19 12:24 51°14.711 2°50.961 5 27 14.1 101820 37
2011-05-19 12:25 51°14.685 2°51.094 4 249 14 101830 36
2011-05-19 12:26 51°14.662 2°51.169 5.2 257 14.1 101830 37
2011-05-19 12:27 51°14.618 2°51.197 -999 24 14.2 101830 38
2011-05-19 12:28 51°14.589 2°51.138 -999 38 14.2 101830 36
2011-05-19 12:29 51°14.591 2°51.102 -999 29 14.1 101830 37
2011-05-19 12:30 51°14.604 2°51.084 -999 27 14 101830 38
2011-05-19 12:31 51°14.622 2°51.078 -999 24 13.9 101830 36
2011-05-19 12:32 51°14.64 2°51.083 -999 21 13.9 101830 38
2011-05-19 12:33 51°14.657 2°51.094 -999 17 13.9 101830 38
2011-05-19 12:34 51°14.674 2°51.111 -999 22 13.9 101830 38
2011-05-19 12:35 51°14.69 2°51.13 -999 23 13.8 101840 38
2011-05-19 12:36 51°14.707 2°51.152 -999 21 13.8 101840 37
2011-05-19 12:37 51°14.723 2°51.175 -999 12 13.8 101840 38
2011-05-19 12:38 51°14.74 2°51.205 -999 3 13.8 101840 39
2011-05-19 12:39 51°14.755 2°51.236 -999 2 13.6 101830 36
2011-05-19 12:40 51°14.768 2°51.267 -999 8 13.6 101840 38
2011-05-19 12:41 51°14.78 2°51.298 -999 17 13.5 101830 38
2011-05-19 12:42 51°14.792 2°51.328 -999 23 13.6 101840 38
2011-05-19 12:43 51°14.805 2°51.361 -999 26 13.6 101840 38
2011-05-19 12:44 51°14.818 2°51.395 -999 33 13.6 101840 38
2011-05-19 12:45 51°14.829 2°51.428 -999 28 13.7 101840 38
2011-05-19 12:46 51°14.839 2°51.461 -999 28 13.6 101840 37
2011-05-19 12:47 51°14.85 2°51.49 -999 25 13.7 101840 36
2011-05-19 12:48 51°14.886 2°51.492 4.3 353 13.6 101840 37
2011-05-19 12:49 51°14.955 2°51.574 6.6 318 13.6 101840 38
2011-05-19 12:50 51°14.972 2°51.814 4.1 318 13.7 101830 38
2011-05-19 12:51 51°14.979 2°52.164 4 319 13.8 101820 38
2011-05-19 12:52 51°14.962 2°52.523 4.5 316 13.8 101810 38
2011-05-19 12:53 51°14.947 2°52.885 4.3 317 13.8 101810 37
2011-05-19 12:54 51°14.941 2°53.262 4.5 317 13.9 101800 38
2011-05-19 12:55 51°14.915 2°53.643 8.8 316 13.9 101800 36
2011-05-19 12:56 51°14.872 2°54.001 8.9 25 14 101810 38
2011-05-19 12:57 51°14.806 2°54.35 4.3 25 13.9 101810 37
2011-05-19 12:58 51°14.713 2°54.681 7.2 28 13.9 101810 38
2011-05-19 12:59 51°14.577 2°54.965 7.3 25 13.8 101830 38
2011-05-19 13:00 51°14.405 2°55.157 5.3 315 13.8 101830 38
2011-05-19 13:01 51°14.238 2°55.31 4 27 13.8 101830 37
2011-05-19 13:02 51°14.096 2°55.432 1.4 23 13.8 101830 37
2011-05-19 13:03 51°13.971 2°55.523 4.2 25 13.9 101830 36
2011-05-19 13:04 51°13.878 2°55.591 -999 260 14.1 101830 38
2011-05-19 13:05 51°13.807 2°55.647 -999 261 14.1 101830 38
2011-05-19 13:06 51°13.757 2°55.713 -999 260 14.2 101830 38
2011-05-19 13:07 51°13.725 2°55.77 -999 258 14.3 101820 38
2011-05-19 13:08 51°13.707 2°55.812 4.6 258 14.4 101830 38
2011-05-19 13:09 51°13.679 2°55.879 2.1 259 14.4 101830 38
2011-05-19 13:10 51°13.65 2°55.954 3.9 259 14.5 101830 38
2011-05-19 13:11 51°13.635 2°56.014 3 257 14.6 101830 36
2011-05-19 13:12 51°13.636 2°56.016 1.9 261 14.7 101840 36